Time;durP1;ratioP1;P1;durP2;ratioP2;P2;SDS_P1;SDS_P2;PMS_P1;PMS_P2;Temp;Humidity;BMP_temperature;BMP_pressure;BME280_temperature;BME280_humidity;BME280_pressure;Samples;Min_cycle;Max_cycle;Signal;HPM_P1;HPM_P2
2023/04/21 00:00:09;;;;;;;19.40;14.60;;;;;;;7.93;67.59;100229.88;217511;1260;234394;-76
2023/04/21 00:05:32;;;;;;;24.30;14.00;;;;;;;7.92;67.77;100232.45;217475;1260;141326;-72
2023/04/21 00:10:37;;;;;;;18.50;13.60;;;;;;;7.90;67.72;100229.92;217666;1260;141560;-74
2023/04/21 00:15:41;;;;;;;21.30;14.80;;;;;;;7.86;67.78;100227.55;218526;1257;140383;-72
2023/04/21 00:20:45;;;;;;;18.70;14.00;;;;;;;7.81;67.87;100231.95;217345;1260;141879;-72
2023/04/21 00:25:49;;;;;;;21.40;15.00;;;;;;;7.73;68.31;100227.91;217943;1257;139623;-71
2023/04/21 00:30:53;;;;;;;17.40;13.50;;;;;;;7.67;67.85;100226.44;217591;1257;140839;-71
2023/04/21 00:35:58;;;;;;;15.80;13.20;;;;;;;7.58;68.24;100220.69;217532;1260;139655;-74
2023/04/21 00:41:02;;;;;;;15.70;13.80;;;;;;;7.49;68.35;100216.23;217581;1257;140015;-72
2023/04/21 00:46:05;;;;;;;19.70;15.40;;;;;;;7.42;68.50;100218.54;217518;1256;139711;-71
2023/04/21 00:51:08;;;;;;;19.60;14.80;;;;;;;7.36;68.25;100221.46;218830;1256;140566;-70
2023/04/21 00:56:12;;;;;;;20.50;13.70;;;;;;;7.31;68.46;100217.80;217430;1257;140736;-71
2023/04/21 01:01:16;;;;;;;36.00;13.70;;;;;;;7.26;68.43;100212.61;217296;1260;139525;-71
2023/04/21 01:06:19;;;;;;;18.30;14.20;;;;;;;7.21;68.38;100208.48;217547;1257;139670;-73
2023/04/21 01:11:22;;;;;;;19.50;15.20;;;;;;;7.18;68.28;100207.00;218080;1256;139743;-72
2023/04/21 01:16:25;;;;;;;17.70;15.10;;;;;;;7.15;68.65;100205.61;220065;1257;140077;-72
2023/04/21 01:21:39;;;;;;;15.60;13.40;;;;;;;7.12;68.49;100206.29;219772;1257;140722;-72
2023/04/21 01:26:44;;;;;;;19.80;14.40;;;;;;;7.12;68.01;100203.89;219085;1257;140453;-72
2023/04/21 01:31:48;;;;;;;16.90;13.80;;;;;;;7.10;68.45;100203.02;217635;1257;140688;-71
2023/04/21 01:36:50;;;;;;;16.00;14.40;;;;;;;7.07;68.30;100203.38;217488;1257;139946;-69
2023/04/21 01:41:56;;;;;;;19.10;14.20;;;;;;;7.03;68.19;100197.59;217460;1257;140660;-69
2023/04/21 01:47:00;;;;;;;19.70;13.10;;;;;;;6.98;68.93;100197.91;217408;1257;140827;-70
2023/04/21 01:52:04;;;;;;;19.90;15.10;;;;;;;6.91;68.46;100197.32;217728;1259;140463;-72
2023/04/21 01:57:07;;;;;;;20.50;16.00;;;;;;;6.86;69.02;100198.03;217829;1257;140043;-72
2023/04/21 02:02:11;;;;;;;22.60;14.60;;;;;;;6.80;69.24;100196.73;217728;1260;139541;-70
2023/04/21 02:07:15;;;;;;;17.00;14.70;;;;;;;6.74;69.53;100199.42;217653;1257;139591;-73
2023/04/21 02:12:19;;;;;;;18.90;15.00;;;;;;;6.71;69.34;100196.52;218016;1257;140967;-73
2023/04/21 02:17:22;;;;;;;20.70;15.00;;;;;;;6.66;69.49;100198.17;217604;1257;140452;-71
2023/04/21 02:22:25;;;;;;;21.90;15.30;;;;;;;6.62;69.29;100198.13;217931;1257;142076;-74
2023/04/21 02:27:28;;;;;;;17.70;14.20;;;;;;;6.59;69.52;100197.69;217735;1257;140304;-72
2023/04/21 02:32:31;;;;;;;20.30;14.50;;;;;;;6.56;69.75;100197.55;217831;1257;140922;-76
2023/04/21 02:37:35;;;;;;;17.20;14.30;;;;;;;6.53;69.64;100198.11;217818;1257;139663;-74
2023/04/21 02:42:38;;;;;;;15.10;12.80;;;;;;;6.49;70.13;100197.19;218054;1256;139768;-75
2023/04/21 02:47:41;;;;;;;19.30;14.30;;;;;;;6.44;69.77;100196.55;217467;1256;139761;-73
2023/04/21 02:52:45;;;;;;;18.70;14.40;;;;;;;6.39;69.98;100204.63;217510;1258;139866;-72
2023/04/21 02:57:48;;;;;;;19.80;13.70;;;;;;;6.33;69.93;100202.23;218047;1256;139990;-75
2023/04/21 03:02:52;;;;;;;20.50;15.40;;;;;;;6.28;70.24;100201.86;218031;1257;139991;-72
2023/04/21 03:07:56;;;;;;;16.30;13.20;;;;;;;6.24;70.03;100201.47;219468;1256;140916;-73
2023/04/21 03:12:59;;;;;;;15.90;13.70;;;;;;;6.21;70.13;100199.00;219520;1256;139755;-73
2023/04/21 03:18:01;;;;;;;15.60;13.20;;;;;;;6.20;70.56;100202.21;218765;1255;140196;-71
2023/04/21 03:23:05;;;;;;;16.10;13.50;;;;;;;6.17;70.65;100201.21;217972;1257;139642;-72
2023/04/21 03:28:08;;;;;;;20.20;15.10;;;;;;;6.13;70.58;100199.89;217922;1256;141533;-72
2023/04/21 03:33:11;;;;;;;19.70;12.90;;;;;;;6.11;70.60;100201.92;218001;1256;139535;-75
2023/04/21 03:38:15;;;;;;;23.10;14.60;;;;;;;6.08;70.63;100207.48;217996;1257;141010;-76
2023/04/21 03:43:17;;;;;;;20.00;15.00;;;;;;;6.04;70.72;100200.46;218038;1257;139669;-78
2023/04/21 03:48:20;;;;;;;18.20;14.60;;;;;;;6.05;70.98;100198.15;217638;1257;835023;-74
2023/04/21 03:53:23;;;;;;;14.40;12.80;;;;;;;6.15;71.32;100201.73;218135;1257;139379;-75
2023/04/21 03:58:26;;;;;;;19.10;12.50;;;;;;;6.43;71.21;100204.90;218050;1256;140382;-74
2023/04/21 04:03:29;;;;;;;19.00;14.10;;;;;;;6.63;71.16;100202.80;218759;1254;140517;-72
2023/04/21 04:08:32;;;;;;;13.50;12.10;;;;;;;6.76;71.41;100207.45;217750;1256;139599;-74
2023/04/21 04:13:35;;;;;;;16.10;11.30;;;;;;;6.84;71.42;100206.42;217851;1257;140039;-71
2023/04/21 04:18:37;;;;;;;18.10;13.80;;;;;;;6.88;71.26;100210.48;217981;1259;140898;-72
2023/04/21 04:23:41;;;;;;;16.80;13.10;;;;;;;6.92;71.55;100214.90;218026;1255;139835;-71
2023/04/21 04:28:44;;;;;;;19.90;13.30;;;;;;;6.98;71.92;100216.42;218479;1256;139622;-71
2023/04/21 04:33:47;;;;;;;20.90;15.90;;;;;;;7.05;71.75;100214.43;217795;1259;139692;-71
2023/04/21 04:38:50;;;;;;;23.30;14.10;;;;;;;7.17;72.10;100214.87;219555;1255;140039;-70
2023/04/21 04:43:53;;;;;;;16.70;11.90;;;;;;;7.33;72.09;100212.17;218570;1254;141174;-72
2023/04/21 04:49:02;;;;;;;18.80;14.40;;;;;;;7.50;72.06;100213.91;219136;1255;153247;-72
2023/04/21 04:54:04;;;;;;;17.80;11.60;;;;;;;7.67;71.63;100222.48;218937;1256;140923;-70
2023/04/21 04:59:07;;;;;;;14.10;11.00;;;;;;;7.86;71.49;100225.76;218304;1257;139961;-73
2023/04/21 05:04:10;;;;;;;16.30;13.80;;;;;;;8.07;71.12;100219.97;217831;1259;139840;-69
2023/04/21 05:09:13;;;;;;;14.70;12.20;;;;;;;8.28;71.18;100207.91;217970;1259;139520;-72
2023/04/21 05:14:15;;;;;;;17.50;13.00;;;;;;;8.49;70.73;100217.10;217868;1259;139599;-74
2023/04/21 05:19:19;;;;;;;16.30;12.50;;;;;;;8.68;70.47;100219.34;217926;1256;140041;-71
2023/04/21 05:24:23;;;;;;;16.30;12.00;;;;;;;8.86;70.04;100224.55;217626;1259;140766;-73
2023/04/21 05:29:26;;;;;;;13.20;10.40;;;;;;;9.06;69.76;100228.34;218188;1257;139900;-70
2023/04/21 05:34:28;;;;;;;16.00;11.80;;;;;;;9.46;69.32;100226.30;217718;1256;141057;-73
2023/04/21 05:39:31;;;;;;;18.60;12.00;;;;;;;10.11;68.44;100229.83;217778;1257;140098;-75
2023/04/21 05:44:33;;;;;;;17.80;13.50;;;;;;;10.27;67.76;100228.21;218105;1256;140750;-70
2023/04/21 05:49:36;;;;;;;23.80;12.10;;;;;;;10.24;67.21;100230.99;217693;1257;140323;-68
2023/04/21 05:54:39;;;;;;;25.20;12.50;;;;;;;10.34;67.26;100226.22;217822;1257;140874;-70
2023/04/21 05:59:42;;;;;;;15.60;10.90;;;;;;;10.53;66.90;100224.98;217776;1255;139982;-68
2023/04/21 06:04:45;;;;;;;14.70;11.20;;;;;;;10.63;66.65;100225.24;218030;1256;140470;-68
2023/04/21 06:09:50;;;;;;;14.70;11.50;;;;;;;10.70;66.64;100222.27;218435;1257;139919;-69
2023/04/21 06:14:56;;;;;;;12.20;10.90;;;;;;;10.76;66.27;100221.13;217741;1257;139856;-68
2023/04/21 06:20:00;;;;;;;;;;;;;;;10.84;66.31;100215.25;218250;1259;141528;-69
2023/04/21 06:25:04;;;;;;;16.90;12.50;;;;;;;10.90;66.19;100212.28;218195;1257;127094;-68
2023/04/21 06:30:07;;;;;;;13.90;11.80;;;;;;;10.97;65.96;100214.85;217732;1259;140428;-70
2023/04/21 06:35:10;;;;;;;13.90;11.10;;;;;;;11.06;65.97;100217.88;218222;1256;140896;-69
2023/04/21 06:40:15;;;;;;;13.70;9.60;;;;;;;11.26;65.98;100215.70;218862;1256;141039;-70
2023/04/21 06:45:19;;;;;;;14.80;9.60;;;;;;;11.89;65.53;100215.02;217962;1256;140688;-71
2023/04/21 06:50:21;;;;;;;13.60;10.10;;;;;;;13.17;64.52;100214.52;218431;1256;140132;-71
2023/04/21 06:55:24;;;;;;;9.80;8.90;;;;;;;14.98;62.45;100218.10;218292;1256;139919;-76
2023/04/21 07:00:27;;;;;;;15.40;11.60;;;;;;;16.32;60.63;100218.96;217644;1256;139036;-70
2023/04/21 07:05:31;;;;;;;14.20;10.60;;;;;;;16.81;58.98;100216.21;218132;1259;139883;-70
2023/04/21 07:10:34;;;;;;;11.80;10.20;;;;;;;16.93;58.04;100219.70;218603;1259;139592;-70
2023/04/21 07:15:38;;;;;;;19.50;12.20;;;;;;;16.70;57.21;100220.99;217731;1257;140471;-71
2023/04/21 07:20:40;;;;;;;12.20;10.10;;;;;;;16.54;57.44;100221.38;218755;1256;139572;-70
2023/04/21 07:25:44;;;;;;;11.60;9.50;;;;;;;16.80;57.67;100216.85;218473;1259;140831;-72
2023/04/21 07:30:46;;;;;;;14.40;10.60;;;;;;;17.13;56.91;100215.65;217745;1256;139828;-72
2023/04/21 07:35:48;;;;;;;13.10;10.50;;;;;;;17.28;56.26;100218.23;217821;1257;139511;-70
2023/04/21 07:40:52;;;;;;;13.40;9.70;;;;;;;17.42;55.84;100216.29;217781;1256;139511;-70
2023/04/21 07:45:56;;;;;;;10.90;9.60;;;;;;;17.55;55.59;100217.11;217712;1257;139991;-69
2023/04/21 07:51:02;;;;;;;9.20;8.00;;;;;;;17.71;55.18;100218.05;218257;1256;139578;-70
2023/04/21 07:56:06;;;;;;;12.00;8.60;;;;;;;17.80;54.70;100218.00;217396;1259;140041;-75
2023/04/21 08:01:11;;;;;;;10.30;7.40;;;;;;;17.78;54.12;100215.41;217721;1255;138939;-75
2023/04/21 08:06:14;;;;;;;8.10;6.70;;;;;;;17.77;53.64;100210.66;217892;1257;139362;-75
2023/04/21 08:11:17;;;;;;;9.80;8.50;;;;;;;17.75;53.24;100205.98;217395;1257;138849;-81
2023/04/21 08:16:22;;;;;;;12.70;8.80;;;;;;;17.76;52.77;100206.67;217727;1257;139017;-83
2023/04/21 08:21:25;;;;;;;8.30;7.50;;;;;;;17.84;52.54;100206.02;217720;1257;138999;-71
2023/04/21 08:26:29;;;;;;;9.90;6.30;;;;;;;17.88;52.39;100209.42;217590;1257;139793;-70
2023/04/21 08:31:32;;;;;;;9.20;5.80;;;;;;;18.06;52.06;100209.52;217772;1259;139318;-70
2023/04/21 08:36:35;;;;;;;7.50;6.80;;;;;;;18.21;51.43;100209.70;218405;1255;140826;-68
2023/04/21 08:41:42;;;;;;;8.30;6.40;;;;;;;18.28;50.86;100209.05;217515;1257;139534;-70
2023/04/21 08:46:49;;;;;;;8.40;5.40;;;;;;;18.39;50.36;100209.65;218547;1256;141297;-71
2023/04/21 08:51:53;;;;;;;5.20;4.60;;;;;;;18.49;50.05;100216.48;220566;1255;140446;-71
2023/04/21 08:56:57;;;;;;;6.60;5.40;;;;;;;18.67;49.38;100212.48;220731;1256;140411;-68
2023/04/21 09:02:18;;;;;;;6.00;4.10;;;;;;;18.74;47.81;100207.77;220665;1255;139310;-70
2023/04/21 09:07:35;;;;;;;4.60;4.30;;;;;;;18.85;47.62;100200.16;220644;1255;139430;-70
2023/04/21 09:12:39;;;;;;;3.80;3.50;;;;;;;18.99;47.06;100198.67;220417;1256;139747;-71
2023/04/21 09:17:44;;;;;;;4.90;3.50;;;;;;;19.02;45.59;100198.92;219265;1256;139084;-74
2023/04/21 09:22:50;;;;;;;4.70;3.80;;;;;;;18.92;44.57;100195.86;219067;1256;139883;-74
2023/04/21 09:27:53;;;;;;;6.80;4.80;;;;;;;18.88;44.48;100193.07;217743;1256;139694;-71
2023/04/21 09:32:56;;;;;;;12.70;4.60;;;;;;;18.91;44.26;100193.27;217822;1259;138892;-70
2023/04/21 09:38:03;;;;;;;6.10;3.80;;;;;;;18.84;43.76;100191.63;217626;1259;139580;-70
2023/04/21 09:43:10;;;;;;;7.20;3.80;;;;;;;18.90;43.79;100186.30;218209;1259;138871;-72
2023/04/21 09:48:16;;;;;;;8.00;3.80;;;;;;;18.94;43.29;100190.23;217637;1259;139994;-75
2023/04/21 09:53:27;;;;;;;5.50;4.50;;;;;;;18.93;42.68;100186.03;217684;1257;140227;-74
2023/04/21 09:58:38;;;;;;;7.20;4.50;;;;;;;19.03;42.90;100183.08;217683;1256;140114;-74
2023/04/21 10:03:45;;;;;;;8.50;3.70;;;;;;;19.07;43.00;100182.30;217617;1257;139956;-76
2023/04/21 10:08:49;;;;;;;8.60;4.30;;;;;;;19.12;42.49;100180.65;218143;1257;139255;-74
2023/04/21 10:13:54;;;;;;;6.80;4.30;;;;;;;19.11;42.14;100177.20;219170;1256;139774;-74
2023/04/21 10:18:59;;;;;;;4.20;3.90;;;;;;;19.13;41.58;100176.05;217626;1259;139127;-74
2023/04/21 10:24:06;;;;;;;4.00;3.80;;;;;;;19.08;41.22;100171.33;217898;1256;139082;-74
2023/04/21 10:29:08;;;;;;;;;;;;;;;19.10;41.66;100168.61;218281;1255;140857;-78
2023/04/21 10:34:15;;;;;;;17.30;4.00;;;;;;;19.12;41.45;100159.73;219885;1254;124573;-75
2023/04/21 10:39:27;;;;;;;4.30;3.90;;;;;;;19.35;41.69;100152.65;217633;1259;139543;-74
2023/04/21 10:44:30;;;;;;;6.10;3.50;;;;;;;19.34;41.32;100144.70;220487;1258;139933;-75
2023/04/21 10:49:38;;;;;;;4.90;3.90;;;;;;;19.37;41.36;100146.30;220712;1257;140172;-76
2023/04/21 10:54:49;;;;;;;7.10;3.60;;;;;;;19.47;41.09;100146.02;220624;1255;140706;-77
2023/04/21 10:59:54;;;;;;;4.10;3.70;;;;;;;19.40;40.28;100141.90;220368;1255;139473;-74
2023/04/21 11:04:59;;;;;;;6.90;4.40;;;;;;;19.43;40.72;100138.86;217503;1256;139346;-74
2023/04/21 11:10:07;;;;;;;5.10;3.90;;;;;;;19.48;40.15;100133.52;217714;1257;140511;-76
2023/04/21 11:15:14;;;;;;;4.10;3.70;;;;;;;19.51;39.77;100127.09;217782;1259;139283;-74
2023/04/21 11:20:16;;;;;;;3.90;3.40;;;;;;;19.41;39.58;100126.33;217642;1259;138892;-74
2023/04/21 11:25:18;;;;;;;9.90;6.60;;;;;;;19.37;39.61;100122.36;217678;1255;139610;-74
2023/04/21 11:30:21;;;;;;;4.00;3.60;;;;;;;19.38;39.48;100110.40;217570;1256;139283;-73
2023/04/21 11:35:23;;;;;;;7.30;3.40;;;;;;;19.26;38.72;100107.21;217628;1257;139158;-74
2023/04/21 11:40:26;;;;;;;6.30;3.40;;;;;;;19.29;39.57;100102.95;217708;1257;139265;-74
2023/04/21 11:45:30;;;;;;;4.10;3.70;;;;;;;19.38;39.60;100103.31;217981;1259;150819;-73
2023/04/21 11:50:32;;;;;;;3.50;3.20;;;;;;;19.35;39.00;100099.13;217650;1257;139252;-75
2023/04/21 11:55:35;;;;;;;4.00;3.50;;;;;;;19.36;39.28;100088.67;217379;1257;139661;-74
2023/04/21 12:00:39;;;;;;;4.10;3.30;;;;;;;19.31;38.71;100089.91;217745;1257;139135;-75
2023/04/21 13:14:31;;;;;;;5.60;2.90;;;;;;;18.64;38.44;100025.35;214344;1289;684052;-79
2023/04/21 13:19:34;;;;;;;2.60;2.40;;;;;;;18.59;38.22;100020.89;216565;1269;139247;-74
2023/04/21 13:24:37;;;;;;;4.00;3.20;;;;;;;18.52;38.02;100019.77;215682;1272;500598;-73
2023/04/21 13:29:40;;;;;;;4.20;2.70;;;;;;;18.53;37.94;100012.80;216154;1269;139702;-75
2023/04/21 13:34:43;;;;;;;3.90;3.10;;;;;;;18.57;37.45;100006.84;216631;1268;139497;-75
2023/04/21 13:39:46;;;;;;;3.90;3.60;;;;;;;18.63;37.74;99999.11;216341;1268;138826;-74
2023/04/21 13:44:49;;;;;;;7.90;3.50;;;;;;;18.69;38.19;99994.88;216717;1266;139300;-75
2023/04/21 13:49:51;;;;;;;2.90;2.70;;;;;;;18.68;37.65;99989.33;216504;1266;139558;-74
2023/04/21 13:54:53;;;;;;;3.00;2.70;;;;;;;18.69;37.84;99979.33;216589;1265;139129;-74
2023/04/21 13:59:56;;;;;;;6.30;3.00;;;;;;;18.74;37.91;99970.86;216457;1268;141139;-74
2023/04/21 14:04:58;;;;;;;3.40;2.80;;;;;;;18.75;37.45;99968.11;216645;1268;139338;-75
2023/04/21 14:10:03;;;;;;;2.20;2.10;;;;;;;18.62;37.48;99961.31;216643;1268;138868;-74
2023/04/21 14:15:06;;;;;;;2.80;2.60;;;;;;;18.52;37.34;99959.41;216674;1266;138530;-74
2023/04/21 14:20:11;;;;;;;2.90;2.70;;;;;;;18.46;37.03;99958.69;216545;1268;139400;-72
2023/04/21 14:25:13;;;;;;;2.90;2.70;;;;;;;18.41;37.13;99954.30;216424;1267;138427;-74
2023/04/21 14:30:16;;;;;;;6.10;3.40;;;;;;;18.38;36.88;99948.64;216485;1268;138881;-74
2023/04/21 14:35:18;;;;;;;3.70;3.10;;;;;;;18.37;37.32;99948.27;216264;1268;138580;-73
2023/04/21 14:40:20;;;;;;;8.10;3.50;;;;;;;18.36;37.51;99938.52;216492;1266;138490;-73
2023/04/21 14:45:22;;;;;;;3.90;3.40;;;;;;;18.33;37.80;99936.65;216469;1268;138677;-73
2023/04/21 14:50:24;;;;;;;4.80;3.00;;;;;;;18.34;37.91;99929.43;216376;1268;138650;-73
2023/04/21 14:55:27;;;;;;;2.80;2.60;;;;;;;18.29;37.38;99928.61;216698;1266;138936;-73
2023/04/21 15:00:30;;;;;;;3.30;3.00;;;;;;;18.12;36.94;99928.21;216538;1268;138921;-73
2023/04/21 15:05:34;;;;;;;2.50;2.30;;;;;;;18.02;37.02;99921.65;217489;1268;138636;-73
2023/04/21 15:10:36;;;;;;;6.90;3.00;;;;;;;17.99;37.35;99911.97;216770;1264;140404;-74
2023/04/21 15:15:40;;;;;;;3.30;2.60;;;;;;;17.95;37.10;99906.00;217045;1261;139351;-73
2023/04/21 15:20:43;;;;;;;5.80;3.30;;;;;;;17.89;37.18;99906.83;217237;1261;138725;-73
2023/04/21 15:25:47;;;;;;;3.50;3.20;;;;;;;17.89;36.81;99902.04;217021;1264;138879;-72
2023/04/21 15:30:50;;;;;;;5.80;3.60;;;;;;;17.86;37.17;99900.98;216946;1265;139290;-73
2023/04/21 15:35:52;;;;;;;7.30;3.30;;;;;;;17.78;37.00;99898.91;216942;1265;138736;-73
2023/04/21 15:40:54;;;;;;;3.90;2.40;;;;;;;17.71;37.27;99897.60;216937;1265;138654;-74
2023/04/21 15:46:11;;;;;;;4.30;3.00;;;;;;;17.60;37.33;99885.55;216983;1260;138986;-72
2023/04/21 15:51:15;;;;;;;3.20;2.50;;;;;;;17.54;37.10;99880.62;216993;1260;218502;-72
2023/04/21 15:56:18;;;;;;;4.90;2.90;;;;;;;17.51;37.45;99878.30;216957;1260;139430;-72
2023/04/21 16:01:21;;;;;;;3.60;2.60;;;;;;;17.50;37.70;99878.42;217028;1265;138926;-73
2023/04/21 16:06:23;;;;;;;11.40;3.70;;;;;;;17.49;37.75;99876.54;217014;1264;139253;-76
2023/04/21 16:11:28;;;;;;;5.80;3.30;;;;;;;17.46;38.11;99872.73;216893;1265;140079;-74
2023/04/21 16:16:30;;;;;;;3.30;2.80;;;;;;;17.35;38.01;99870.04;216884;1265;138923;-74
2023/04/21 16:21:35;;;;;;;3.80;3.50;;;;;;;17.22;38.10;99868.20;217064;1260;140217;-73
2023/04/21 16:26:39;;;;;;;5.70;4.00;;;;;;;17.10;38.40;99869.42;216909;1265;140385;-75
2023/04/21 16:31:43;;;;;;;3.80;2.90;;;;;;;16.98;38.54;99867.79;216903;1260;138516;-74
2023/04/21 16:36:46;;;;;;;4.20;3.80;;;;;;;16.81;38.39;99867.02;218508;1260;138931;-73
2023/04/21 16:41:49;;;;;;;3.30;3.00;;;;;;;16.67;38.58;99864.20;217216;1259;139232;-74
2023/04/21 16:46:53;;;;;;;5.50;3.20;;;;;;;16.59;38.80;99866.85;217550;1260;138760;-75
2023/04/21 16:51:56;;;;;;;2.90;2.60;;;;;;;16.49;39.11;99860.85;217831;1263;139989;-74
2023/04/21 16:57:00;;;;;;;2.70;2.40;;;;;;;16.36;39.80;99852.52;216773;1260;138922;-73
2023/04/21 17:02:04;;;;;;;4.60;3.00;;;;;;;16.22;39.63;99856.05;217784;1260;140292;-74
2023/04/21 17:07:07;;;;;;;3.60;2.70;;;;;;;16.04;39.82;99855.83;217195;1261;139067;-72
2023/04/21 17:12:10;;;;;;;3.70;3.10;;;;;;;15.90;40.12;99854.31;217874;1259;139548;-72
2023/04/21 17:17:15;;;;;;;3.50;3.20;;;;;;;15.74;40.36;99852.95;217123;1263;138967;-72
2023/04/21 17:22:17;;;;;;;2.70;2.50;;;;;;;15.55;41.02;99856.70;217808;1261;138928;-72
2023/04/21 17:27:21;;;;;;;3.90;3.50;;;;;;;15.37;41.60;99853.28;217476;1263;139845;-72
2023/04/21 17:32:24;;;;;;;4.30;3.40;;;;;;;15.21;42.17;99853.23;217150;1263;139508;-76
2023/04/21 17:37:29;;;;;;;9.50;3.30;;;;;;;15.00;42.54;99857.68;217060;1260;139641;-73
2023/04/21 17:42:32;;;;;;;4.10;2.60;;;;;;;14.82;43.37;99854.58;217080;1263;138904;-73
2023/04/21 17:47:35;;;;;;;4.00;3.50;;;;;;;14.64;44.31;99852.11;217572;1260;138769;-73
2023/04/21 17:52:39;;;;;;;3.10;2.80;;;;;;;14.43;44.85;99860.25;217076;1260;138969;-73
2023/04/21 17:57:42;;;;;;;3.10;2.80;;;;;;;14.23;45.11;99860.30;217642;1260;138578;-71
2023/04/21 18:02:44;;;;;;;3.80;3.40;;;;;;;14.01;45.42;99865.19;217196;1260;221437;-73
2023/04/21 18:07:47;;;;;;;4.10;3.10;;;;;;;13.78;46.29;99866.10;218898;1259;139337;-73
2023/04/21 18:12:50;;;;;;;4.60;3.80;;;;;;;13.56;46.72;99868.10;220081;1260;138354;-74
2023/04/21 18:17:53;;;;;;;4.40;4.00;;;;;;;13.33;46.90;99873.09;217361;1261;138922;-73
2023/04/21 18:22:56;;;;;;;4.40;3.70;;;;;;;13.08;47.30;99871.89;220009;1259;140857;-73
2023/04/21 18:27:59;;;;;;;6.80;3.40;;;;;;;12.87;49.38;99873.63;218209;1260;138680;-73
2023/04/21 18:33:01;;;;;;;4.80;3.60;;;;;;;12.68;50.75;99871.14;220006;1259;138516;-74
2023/04/21 18:38:06;;;;;;;3.90;3.60;;;;;;;12.46;51.30;99867.94;218016;1260;139258;-73
2023/04/21 18:43:10;;;;;;;3.50;3.20;;;;;;;12.25;52.13;99869.25;217689;1260;138647;-72
2023/04/21 18:48:14;;;;;;;6.40;4.00;;;;;;;12.04;52.73;99866.65;218345;1260;139126;-72
2023/04/21 18:53:17;;;;;;;4.80;4.10;;;;;;;11.84;53.86;99866.61;217211;1260;139205;-73
2023/04/21 18:58:22;;;;;;;5.20;4.20;;;;;;;11.64;53.96;99865.46;218501;1259;161111;-72
2023/04/21 19:03:31;;;;;;;7.60;4.50;;;;;;;11.40;54.72;99870.06;217399;1259;138831;-72
2023/04/21 19:08:36;;;;;;;6.00;4.40;;;;;;;11.20;55.95;99867.70;218494;1259;141435;-73
2023/04/21 19:13:48;;;;;;;3.60;3.30;;;;;;;11.04;56.77;99868.73;217046;1260;138610;-73
2023/04/21 19:18:51;;;;;;;9.20;4.90;;;;;;;10.87;57.18;99864.58;216941;1261;139814;-76
2023/04/21 19:23:56;;;;;;;5.00;3.70;;;;;;;10.72;57.27;99868.70;217156;1263;139409;-75
2023/04/21 19:29:01;;;;;;;5.00;3.50;;;;;;;10.57;57.77;99861.35;217482;1263;139684;-80
2023/04/21 19:34:05;;;;;;;7.30;3.70;;;;;;;10.42;58.33;99855.35;217448;1259;139180;-72
2023/04/21 19:39:08;;;;;;;8.00;4.40;;;;;;;10.27;58.60;99855.23;217261;1259;138747;-72
2023/04/21 19:44:12;;;;;;;8.90;4.90;;;;;;;10.10;58.70;99853.48;217593;1260;140513;-73
2023/04/21 19:49:15;;;;;;;5.50;4.60;;;;;;;9.93;59.08;99853.15;216994;1262;138851;-70
2023/04/21 19:54:18;;;;;;;14.30;6.30;;;;;;;9.78;59.52;99852.30;217660;1256;138517;-73
2023/04/21 19:59:21;;;;;;;8.70;6.30;;;;;;;9.65;59.96;99852.37;217993;1256;139808;-77
2023/04/21 20:04:24;;;;;;;18.10;7.00;;;;;;;9.52;60.50;99846.64;217527;1257;139008;-72
2023/04/21 20:09:27;;;;;;;16.40;8.40;;;;;;;9.39;61.02;99847.20;218547;1256;140006;-73
2023/04/21 20:14:30;;;;;;;12.50;8.30;;;;;;;9.25;61.45;99844.93;217542;1256;139512;-72
2023/04/21 20:19:34;;;;;;;18.30;10.40;;;;;;;9.10;61.37;99849.84;218763;1256;140212;-73
2023/04/21 20:24:36;;;;;;;25.10;11.80;;;;;;;8.96;61.48;99851.98;219098;1256;140727;-75
2023/04/21 20:29:39;;;;;;;15.10;11.10;;;;;;;8.82;61.61;99848.02;220338;1256;139793;-69
2023/04/21 20:34:43;;;;;;;17.00;9.90;;;;;;;8.70;62.17;99852.05;218194;1256;140981;-74
2023/04/21 20:39:45;;;;;;;11.80;8.10;;;;;;;8.62;62.44;99855.40;219118;1260;139509;-73
2023/04/21 20:44:52;;;;;;;11.30;10.20;;;;;;;8.52;62.62;99855.96;220174;1256;139916;-76
2023/04/21 20:49:58;;;;;;;12.50;8.90;;;;;;;8.41;62.79;99855.51;218248;1256;140838;-71
2023/04/21 20:55:01;;;;;;;12.10;9.50;;;;;;;8.31;63.12;99852.66;218994;1256;140993;-69
2023/04/21 21:00:04;;;;;;;18.50;12.20;;;;;;;8.21;63.40;99855.65;217611;1257;159599;-73
2023/04/21 21:05:07;;;;;;;13.30;11.90;;;;;;;8.13;63.66;99860.80;218072;1257;139286;-73
2023/04/21 21:10:11;;;;;;;18.20;10.10;;;;;;;8.04;63.82;99862.66;218058;1257;140101;-75
2023/04/21 21:15:13;;;;;;;16.30;10.60;;;;;;;7.94;64.48;99862.33;218859;1257;141430;-76
2023/04/21 21:20:16;;;;;;;14.90;9.70;;;;;;;7.84;64.38;99864.60;218842;1257;141193;-79
2023/04/21 21:25:19;;;;;;;17.80;10.60;;;;;;;7.74;65.02;99861.55;217904;1260;139331;-76
2023/04/21 21:30:22;;;;;;;17.40;11.30;;;;;;;7.65;65.17;99860.90;218263;1256;139689;-79
2023/04/21 21:35:28;;;;;;;23.10;12.30;;;;;;;7.57;65.59;99859.00;218046;1256;142616;-70
2023/04/21 21:40:30;;;;;;;18.90;12.20;;;;;;;7.48;66.26;99854.30;217572;1256;139969;-71
2023/04/21 21:45:32;;;;;;;32.70;11.70;;;;;;;7.39;66.29;99854.02;217865;1260;139964;-69
2023/04/21 21:50:35;;;;;;;13.10;9.10;;;;;;;7.23;66.10;99856.63;218603;1256;139954;-73
2023/04/21 21:55:38;;;;;;;13.90;8.60;;;;;;;7.07;66.51;99860.73;218089;1256;140443;-74
2023/04/21 22:00:41;;;;;;;10.10;7.70;;;;;;;6.92;66.57;99859.61;219393;1256;139279;-70
2023/04/21 22:05:43;;;;;;;15.70;8.30;;;;;;;6.75;66.77;99861.80;217421;1257;139393;-68
2023/04/21 22:10:46;;;;;;;18.90;9.50;;;;;;;6.64;66.87;99867.13;217734;1256;140255;-70
2023/04/21 22:15:49;;;;;;;14.80;8.90;;;;;;;6.56;67.35;99868.80;219046;1256;139930;-69
2023/04/21 22:20:53;;;;;;;18.70;9.70;;;;;;;6.48;67.69;99868.10;219786;1256;140038;-70
2023/04/21 22:25:56;;;;;;;23.30;13.90;;;;;;;6.43;67.63;99863.06;217833;1256;139490;-70
2023/04/21 22:30:59;;;;;;;10.70;7.50;;;;;;;6.39;67.98;99861.53;218526;1256;140346;-74
2023/04/21 22:36:02;;;;;;;17.90;10.30;;;;;;;6.25;68.08;99855.78;219216;1255;140638;-70
2023/04/21 22:41:05;;;;;;;16.00;10.80;;;;;;;6.16;68.31;99850.27;219939;1256;139785;-72
2023/04/21 22:46:09;;;;;;;45.40;21.40;;;;;;;6.05;68.66;99849.67;218648;1257;139348;-70
2023/04/21 22:51:13;;;;;;;90.70;36.00;;;;;;;5.97;68.94;99841.15;219167;1256;141116;-74
2023/04/21 22:56:17;;;;;;;84.90;37.20;;;;;;;5.98;69.16;99844.09;218145;1256;139628;-76
2023/04/21 23:01:21;;;;;;;88.70;33.90;;;;;;;6.00;69.84;99849.43;217550;1256;140686;-73
2023/04/21 23:06:25;;;;;;;77.20;33.10;;;;;;;6.00;69.90;99846.20;218375;1260;140035;-73
2023/04/21 23:11:30;;;;;;;111.90;41.70;;;;;;;5.91;70.03;99849.72;217596;1256;139394;-73
2023/04/21 23:16:33;;;;;;;113.00;43.00;;;;;;;5.84;69.96;99854.40;217854;1256;139658;-74
2023/04/21 23:21:37;;;;;;;102.90;39.60;;;;;;;5.76;69.78;99852.58;217876;1256;140486;-74
2023/04/21 23:26:40;;;;;;;83.70;32.70;;;;;;;5.67;69.95;99854.05;217553;1256;139904;-72
2023/04/21 23:31:45;;;;;;;52.10;22.50;;;;;;;5.61;70.43;99852.08;218024;1256;139756;-74
2023/04/21 23:36:51;;;;;;;28.60;15.20;;;;;;;5.54;70.56;99851.70;218399;1256;139464;-75
2023/04/21 23:41:55;;;;;;;29.50;15.50;;;;;;;5.47;71.06;99848.77;217428;1256;139741;-75
2023/04/21 23:46:58;;;;;;;26.60;14.30;;;;;;;5.38;71.00;99846.04;217733;1256;139587;-75
2023/04/21 23:52:01;;;;;;;42.20;21.50;;;;;;;5.30;71.14;99851.66;218082;1256;154024;-74
2023/04/21 23:57:03;;;;;;;41.50;21.20;;;;;;;5.24;71.55;99857.20;217920;1256;139853;-74
